createdAt,value
2019-04-22T00:00:34.796Z,0.00
2019-04-22T00:01:31.267Z,0.00
2019-04-22T00:02:29.894Z,0.00
2019-04-22T00:03:38.283Z,0.00
2019-04-22T00:04:40.211Z,0.00
2019-04-22T00:05:53.195Z,0.00
2019-04-22T00:06:50.304Z,0.00
2019-04-22T00:07:56.794Z,0.00
2019-04-22T00:08:58.751Z,0.00
2019-04-22T00:10:55.820Z,0.00
2019-04-22T00:11:53.122Z,0.00
2019-04-22T00:12:57.755Z,0.00
2019-04-22T00:14:14.991Z,0.00
2019-04-22T00:14:48.056Z,0.00
2019-04-22T00:15:47.513Z,0.00
2019-04-22T00:16:56.681Z,0.00
2019-04-22T00:18:00.372Z,0.00
2019-04-22T00:19:11.361Z,0.00
2019-04-22T00:19:57.690Z,0.00
2019-04-22T00:20:42.084Z,0.00
2019-04-22T00:21:55.988Z,0.00
2019-04-22T00:22:52.022Z,0.00
2019-04-22T00:23:54.881Z,0.00
2019-04-22T00:24:52.607Z,0.00
2019-04-22T00:25:57.280Z,0.00
2019-04-22T00:26:58.495Z,0.00
2019-04-22T00:28:01.011Z,0.00
2019-04-22T00:29:08.113Z,0.00
2019-04-22T00:30:13.895Z,0.00
2019-04-22T00:30:54.718Z,0.00
2019-04-22T00:31:54.713Z,0.00
2019-04-22T00:32:53.671Z,0.00
2019-04-22T00:33:53.213Z,0.00
2019-04-22T00:34:53.709Z,0.00
2019-04-22T00:35:49.704Z,0.00
2019-04-22T00:36:50.662Z,0.00
2019-04-22T00:37:53.262Z,0.00
2019-04-22T00:38:54.281Z,0.00
2019-04-22T00:39:51.322Z,0.00
2019-04-22T00:40:52.231Z,0.00
2019-04-22T00:41:55.210Z,0.00
2019-04-22T00:42:53.292Z,0.00
2019-04-22T00:43:59.525Z,0.00
2019-04-22T00:44:57.860Z,0.00
2019-04-22T00:45:48.142Z,0.00
2019-04-22T00:46:55.690Z,0.00
2019-04-22T00:47:50.735Z,0.00
2019-04-22T00:49:18.187Z,0.00
2019-04-22T00:51:56.947Z,0.00
2019-04-22T00:52:56.060Z,0.00
2019-04-22T00:53:56.235Z,0.00
2019-04-22T00:54:59.435Z,0.00
2019-04-22T00:55:54.356Z,0.00
2019-04-22T00:56:47.485Z,0.00
2019-04-22T00:57:54.254Z,0.00
2019-04-22T00:59:08.183Z,0.00
2019-04-22T00:59:52.331Z,0.00
2019-04-22T01:00:58.753Z,0.00
2019-04-22T01:01:57.583Z,0.00
2019-04-22T01:02:54.123Z,0.00
2019-04-22T01:03:58.520Z,0.00
2019-04-22T01:04:57.532Z,0.00
2019-04-22T01:05:59.634Z,0.00
2019-04-22T01:06:51.629Z,0.00
2019-04-22T01:07:50.022Z,0.00
2019-04-22T01:09:56.168Z,0.00
2019-04-22T01:10:52.715Z,0.00
2019-04-22T01:11:53.716Z,0.00
2019-04-22T01:12:51.541Z,0.00
2019-04-22T01:13:53.421Z,0.00
2019-04-22T01:14:53.829Z,0.00
2019-04-22T01:16:00.885Z,0.00
2019-04-22T01:16:55.145Z,0.00
2019-04-22T01:17:52.570Z,0.00
2019-04-22T01:18:52.277Z,0.00
2019-04-22T01:20:05.040Z,0.00
2019-04-22T01:21:52.433Z,0.00
2019-04-22T01:22:46.125Z,0.00
2019-04-22T01:23:49.364Z,0.00
2019-04-22T01:24:48.641Z,0.00
2019-04-22T01:25:46.145Z,0.00
2019-04-22T01:26:43.490Z,0.00
2019-04-22T01:27:40.231Z,0.00
2019-04-22T01:28:39.309Z,0.00
2019-04-22T01:29:39.707Z,0.00
2019-04-22T01:30:34.989Z,0.00
2019-04-22T01:31:30.872Z,0.00
2019-04-22T01:32:32.785Z,0.00
2019-04-22T01:33:33.209Z,0.00
2019-04-22T01:34:40.429Z,0.00
2019-04-22T01:35:41.284Z,0.00
2019-04-22T01:36:51.702Z,0.00
2019-04-22T01:37:45.685Z,0.00
2019-04-22T01:38:56.441Z,0.00
2019-04-22T01:39:50.641Z,0.00
2019-04-22T01:40:57.824Z,0.00
2019-04-22T01:41:59.793Z,0.00
2019-04-22T01:42:56.010Z,0.00
2019-04-22T01:43:58.797Z,0.00
2019-04-22T01:45:12.408Z,0.00
2019-04-22T01:45:53.240Z,0.00
2019-04-22T01:46:55.199Z,0.00
2019-04-22T01:47:53.296Z,0.00
2019-04-22T01:48:54.300Z,0.00
2019-04-22T01:49:55.672Z,0.00
2019-04-22T01:50:49.981Z,0.00
2019-04-22T01:52:52.072Z,0.00
2019-04-22T01:53:58.021Z,0.00
2019-04-22T01:55:12.632Z,0.00
2019-04-22T01:55:49.989Z,0.00
2019-04-22T01:56:54.809Z,0.00
2019-04-22T01:57:50.037Z,0.00
2019-04-22T01:58:44.291Z,0.00
2019-04-22T01:59:40.419Z,0.00
2019-04-22T02:00:53.467Z,0.00
2019-04-22T02:01:55.201Z,0.00
2019-04-22T02:02:48.782Z,0.00
2019-04-22T02:03:57.443Z,0.00
2019-04-22T02:04:53.716Z,0.00
2019-04-22T02:05:50.542Z,0.00
2019-04-22T02:06:48.221Z,0.00
2019-04-22T02:07:50.257Z,0.00
2019-04-22T02:08:52.711Z,0.00
2019-04-22T02:09:53.351Z,0.00
2019-04-22T02:11:11.848Z,0.00
2019-04-22T02:11:56.384Z,0.00
2019-04-22T02:12:54.239Z,0.00
2019-04-22T02:13:49.486Z,0.00
2019-04-22T02:14:52.227Z,0.00
2019-04-22T02:15:52.492Z,0.00
2019-04-22T02:16:57.637Z,0.00
2019-04-22T02:17:54.746Z,0.00
2019-04-22T02:18:58.401Z,0.00
2019-04-22T02:19:57.827Z,0.00
2019-04-22T02:20:48.605Z,0.00
2019-04-22T02:21:51.686Z,0.00
2019-04-22T02:23:11.570Z,0.00
2019-04-22T02:23:54.763Z,0.00
2019-04-22T02:24:51.110Z,0.00
2019-04-22T02:25:56.393Z,0.00
2019-04-22T02:26:54.630Z,0.00
2019-04-22T02:28:03.240Z,0.00
2019-04-22T02:29:51.955Z,0.00
2019-04-22T02:31:13.958Z,0.00
2019-04-22T02:31:58.994Z,0.00
2019-04-22T02:33:25.511Z,0.00
2019-04-22T02:34:12.016Z,0.00
2019-04-22T02:36:09.027Z,0.00
2019-04-22T02:36:58.224Z,0.00
2019-04-22T02:37:54.737Z,0.00
2019-04-22T02:39:55.445Z,0.00
2019-04-22T02:41:21.033Z,0.00
2019-04-22T02:41:54.766Z,0.00
2019-04-22T02:43:01.937Z,0.00
2019-04-22T02:44:04.052Z,0.00
2019-04-22T02:46:13.489Z,0.00
2019-04-22T02:49:53.500Z,0.00
2019-04-22T02:52:09.381Z,0.00
2019-04-22T02:52:56.435Z,0.00
2019-04-22T02:55:01.371Z,0.00
2019-04-22T02:56:05.541Z,0.00
2019-04-22T02:56:48.744Z,0.00
2019-04-22T02:57:49.140Z,0.00
2019-04-22T02:59:04.198Z,0.00
2019-04-22T02:59:57.367Z,0.00
2019-04-22T03:01:01.394Z,0.00
2019-04-22T03:01:47.801Z,0.00
2019-04-22T03:04:51.534Z,0.00
2019-04-22T03:06:43.476Z,0.00
2019-04-22T03:07:58.792Z,0.00
2019-04-22T03:08:59.668Z,0.00
2019-04-22T03:09:53.613Z,0.00
2019-04-22T03:11:04.061Z,0.00
2019-04-22T03:12:54.102Z,0.00
2019-04-22T03:14:45.674Z,0.00
2019-04-22T03:14:48.669Z,0.00
2019-04-22T03:16:07.700Z,0.00
2019-04-22T03:17:10.313Z,0.00
2019-04-22T03:18:03.075Z,0.00
2019-04-22T03:19:06.048Z,0.00
2019-04-22T03:19:58.746Z,0.00
2019-04-22T03:20:58.179Z,0.00
2019-04-22T03:22:12.803Z,0.00
2019-04-22T03:22:55.108Z,0.00
2019-04-22T03:24:05.934Z,0.00
2019-04-22T03:25:29.708Z,0.00
2019-04-22T03:27:48.273Z,0.00
2019-04-22T03:28:54.824Z,0.00
2019-04-22T03:30:26.620Z,0.00
2019-04-22T03:34:44.850Z,0.00
2019-04-22T03:36:18.680Z,0.00
2019-04-22T03:40:07.301Z,0.00
2019-04-22T03:41:13.457Z,0.00
2019-04-22T03:43:09.184Z,0.00
2019-04-22T03:43:13.661Z,0.00
2019-04-22T03:44:10.253Z,0.00
2019-04-22T03:45:02.778Z,0.00
2019-04-22T03:45:58.751Z,0.00
2019-04-22T03:47:02.763Z,0.00
2019-04-22T03:49:11.735Z,0.00
2019-04-22T03:50:04.034Z,5.63
2019-04-22T03:50:43.145Z,5.63
2019-04-22T03:54:03.513Z,5.63
2019-04-22T03:55:13.467Z,5.63
2019-04-22T03:55:58.773Z,11.25
2019-04-22T03:57:31.167Z,11.25
2019-04-22T03:57:52.010Z,11.25
2019-04-22T03:58:57.071Z,11.25
2019-04-22T04:02:16.181Z,16.88
2019-04-22T04:02:55.974Z,22.50
2019-04-22T04:04:02.968Z,22.50
2019-04-22T04:04:51.075Z,28.13
2019-04-22T04:05:54.207Z,28.13
2019-04-22T04:08:51.527Z,39.38
2019-04-22T04:10:08.194Z,39.38
2019-04-22T04:10:53.393Z,45.00
2019-04-22T04:13:03.443Z,50.63
2019-04-22T04:14:01.486Z,56.25
2019-04-22T04:15:14.109Z,56.25
2019-04-22T04:15:46.626Z,61.88
2019-04-22T04:16:56.751Z,61.88
2019-04-22T04:17:51.841Z,67.50
2019-04-22T04:20:05.750Z,84.38
2019-04-22T04:21:00.697Z,90.00
2019-04-22T04:21:53.505Z,95.63
2019-04-22T04:23:05.531Z,101.25
2019-04-22T04:24:23.864Z,112.50
2019-04-22T04:27:20.781Z,129.38
2019-04-22T04:30:14.360Z,151.88
2019-04-22T04:30:48.906Z,163.13
2019-04-22T04:32:58.922Z,168.75
2019-04-22T04:33:54.114Z,180.00
2019-04-22T04:35:54.835Z,191.25
2019-04-22T04:37:25.173Z,196.88
2019-04-22T04:38:51.948Z,213.75
2019-04-22T04:40:50.895Z,230.63
2019-04-22T04:42:56.619Z,241.88
2019-04-22T04:44:16.898Z,247.50
2019-04-22T04:45:10.978Z,258.75
2019-04-22T04:46:58.991Z,270.00
2019-04-22T04:48:00.992Z,275.63
2019-04-22T04:49:00.524Z,286.88
2019-04-22T04:50:06.949Z,292.50
2019-04-22T04:53:06.277Z,309.38
2019-04-22T04:53:58.132Z,264.38
2019-04-22T04:55:17.582Z,236.25
2019-04-22T04:55:53.163Z,236.25
2019-04-22T04:56:51.403Z,236.25
2019-04-22T05:00:26.766Z,258.75
2019-04-22T05:01:55.626Z,258.75
2019-04-22T05:02:52.455Z,275.63
2019-04-22T05:03:57.323Z,331.88
2019-04-22T05:05:04.270Z,405.00
2019-04-22T05:05:52.397Z,444.38
2019-04-22T05:07:05.408Z,450.00
2019-04-22T05:09:51.576Z,489.38
2019-04-22T05:11:05.924Z,500.63
2019-04-22T05:12:01.729Z,511.88
2019-04-22T05:14:50.549Z,562.50
2019-04-22T05:15:59.802Z,568.13
2019-04-22T05:17:54.308Z,579.38
2019-04-22T05:18:55.087Z,590.63
2019-04-22T05:19:49.574Z,607.50
2019-04-22T05:21:02.898Z,618.75
2019-04-22T05:21:53.361Z,635.63
2019-04-22T05:23:03.248Z,646.88
2019-04-22T05:24:00.586Z,658.13
2019-04-22T05:25:08.215Z,675.00
2019-04-22T05:25:41.339Z,680.63
2019-04-22T05:26:50.715Z,691.88
2019-04-22T05:27:47.215Z,720.00
2019-04-22T05:28:42.264Z,736.88
2019-04-22T05:30:03.693Z,748.13
2019-04-22T05:30:39.598Z,759.38
2019-04-22T05:31:52.191Z,776.25
2019-04-22T05:33:03.006Z,776.25
2019-04-22T05:33:48.416Z,804.38
2019-04-22T05:34:48.724Z,826.88
2019-04-22T05:35:51.134Z,838.13
2019-04-22T05:36:49.438Z,838.13
2019-04-22T05:37:49.960Z,849.38
2019-04-22T05:38:52.278Z,866.25
2019-04-22T05:39:52.724Z,871.88
2019-04-22T05:40:40.847Z,883.13
2019-04-22T05:41:43.450Z,900.00
2019-04-22T05:42:54.621Z,916.88
2019-04-22T05:43:42.149Z,900.00
2019-04-22T05:45:43.098Z,939.38
2019-04-22T05:46:39.319Z,961.88
2019-04-22T05:47:46.296Z,956.25
2019-04-22T05:48:44.583Z,967.50
2019-04-22T05:49:41.754Z,995.63
2019-04-22T05:50:47.409Z,1018.13
2019-04-22T06:10:11.621Z,1355.63
2019-04-22T06:11:10.246Z,1338.75
2019-04-22T06:11:58.968Z,1355.63
2019-04-22T06:13:02.173Z,1389.38
2019-04-22T06:16:16.082Z,1428.75
2019-04-22T06:17:20.212Z,1440.00
2019-04-22T06:18:16.275Z,1473.75
2019-04-22T06:19:15.621Z,1513.13
2019-04-22T06:20:09.080Z,1530.00
2019-04-22T06:21:12.584Z,1524.38
2019-04-22T06:22:25.373Z,1524.38
2019-04-22T06:23:24.393Z,1580.63
2019-04-22T06:24:16.599Z,1597.50
2019-04-22T06:25:20.374Z,1636.88
2019-04-22T06:27:26.899Z,1625.63
2019-04-22T06:28:26.844Z,1670.63
2019-04-22T06:29:14.979Z,1704.38
2019-04-22T06:35:19.770Z,1760.63
2019-04-22T06:36:08.013Z,1800.00
2019-04-22T06:37:13.087Z,1816.88
2019-04-22T06:38:26.826Z,1828.13
2019-04-22T06:39:19.069Z,1861.88
2019-04-22T06:41:33.277Z,1901.25
2019-04-22T06:43:20.082Z,1918.13
2019-04-22T06:44:22.648Z,1861.88
2019-04-22T06:45:18.890Z,1850.63
2019-04-22T06:46:21.416Z,1935.00
2019-04-22T06:47:27.355Z,1912.50
2019-04-22T07:31:21.120Z,2334.38
2019-04-22T07:32:47.743Z,2345.63
2019-04-22T07:33:27.760Z,2289.38
2019-04-22T07:34:29.608Z,2295.00
2019-04-22T07:35:28.602Z,2289.38
2019-04-22T07:37:31.627Z,2323.13
2019-04-22T07:38:26.387Z,2328.75
2019-04-22T07:41:43.166Z,2396.25
2019-04-22T07:42:49.407Z,2413.13
2019-04-22T07:44:03.034Z,2396.25
2019-04-22T07:44:51.066Z,2452.50
2019-04-22T07:46:00.083Z,2424.38
2019-04-22T07:47:52.416Z,2441.25
2019-04-22T08:05:22.473Z,2480.63
2019-04-22T08:09:16.677Z,2491.88
2019-04-22T08:10:16.696Z,2452.50
2019-04-22T08:11:21.870Z,2553.75
2019-04-22T08:12:55.411Z,2469.38
2019-04-22T08:13:49.851Z,2531.25
2019-04-22T08:14:54.722Z,2593.13
2019-04-22T08:15:55.341Z,2615.63
2019-04-22T08:17:01.575Z,2638.13
2019-04-22T08:20:20.100Z,2643.75
2019-04-22T08:44:52.124Z,2677.50
2019-04-22T08:45:46.182Z,2683.13
2019-04-22T08:58:21.685Z,2784.38
2019-04-22T09:00:39.655Z,2863.13
2019-04-22T09:01:36.380Z,2863.13
2019-04-22T09:02:38.650Z,2812.50
2019-04-22T09:03:39.769Z,2902.50
2019-04-22T09:09:34.001Z,2801.25
2019-04-22T09:10:38.051Z,2896.88
2019-04-22T09:12:50.013Z,2998.13
2019-04-22T09:13:41.707Z,2913.75
2019-04-22T09:14:40.512Z,2874.38
2019-04-22T09:15:35.801Z,3065.63
2019-04-22T09:17:34.619Z,2964.38
2019-04-22T09:18:34.850Z,2992.50
2019-04-22T09:19:30.098Z,2925.00
2019-04-22T09:20:32.656Z,2958.75
2019-04-22T09:26:24.001Z,3003.75
2019-04-22T09:33:49.215Z,3099.38
2019-04-22T09:34:51.297Z,3200.63
2019-04-22T09:35:52.076Z,3273.75
2019-04-22T09:58:44.695Z,3330.00
2019-04-22T09:59:54.093Z,3358.13
2019-04-22T10:00:52.789Z,3560.63
2019-04-22T10:01:51.989Z,3465.00
2019-04-22T10:02:47.365Z,3391.88
2019-04-22T10:03:54.534Z,3481.88
2019-04-22T10:04:48.242Z,3583.13
2019-04-22T10:05:50.022Z,3453.75
2019-04-22T10:06:41.229Z,3431.25
2019-04-22T10:07:44.797Z,3538.13
2019-04-22T10:08:52.623Z,3498.75
2019-04-22T10:09:59.483Z,3549.38
2019-04-22T10:10:48.723Z,3465.00
2019-04-22T10:11:55.296Z,3318.75
2019-04-22T10:59:40.715Z,3650.63
2019-04-22T11:00:40.031Z,3701.25
2019-04-22T11:01:40.414Z,3633.75
2019-04-22T11:02:41.457Z,3729.38
2019-04-22T11:03:41.439Z,3678.75
2019-04-22T11:04:40.542Z,3808.13
2019-04-22T11:05:39.960Z,3971.25
2019-04-22T11:06:48.655Z,3847.50
2019-04-22T11:07:46.285Z,3898.13
2019-04-22T11:08:46.690Z,3954.38
2019-04-22T11:09:49.332Z,3830.63
2019-04-22T11:10:56.399Z,3813.75
2019-04-22T11:11:48.903Z,3673.13
2019-04-22T11:12:41.231Z,3847.50
2019-04-22T11:13:39.965Z,3881.25
2019-04-22T11:14:43.126Z,3718.13
2019-04-22T11:15:40.507Z,3791.25
2019-04-22T11:16:39.775Z,3796.88
2019-04-22T11:17:39.763Z,3892.50
2019-04-22T11:18:41.157Z,3723.75
2019-04-22T11:19:39.729Z,2806.88
2019-04-22T11:20:39.838Z,2154.38
2019-04-22T11:21:39.692Z,2227.50
2019-04-22T11:22:40.707Z,2666.25
2019-04-22T11:23:40.672Z,3026.25
2019-04-22T11:24:41.063Z,2930.63
2019-04-22T11:25:39.688Z,2643.75
2019-04-22T11:26:41.017Z,2722.50
2019-04-22T11:27:41.095Z,2812.50
2019-04-22T11:28:39.594Z,2908.13
2019-04-22T11:29:39.604Z,2930.63
2019-04-22T11:30:40.634Z,2880.00
2019-04-22T11:31:39.539Z,2964.38
2019-04-22T11:32:40.428Z,3234.38
2019-04-22T11:33:40.658Z,3436.88
2019-04-22T11:34:39.532Z,3481.88
2019-04-22T11:35:39.650Z,3431.25
2019-04-22T11:36:40.776Z,3493.13
2019-04-22T11:37:40.696Z,3453.75
2019-04-22T11:38:48.575Z,3352.50
2019-04-22T11:39:40.743Z,3290.63
2019-04-22T11:40:43.889Z,3588.75
2019-04-22T11:41:40.263Z,3712.50
2019-04-22T11:42:40.575Z,3577.50
2019-04-22T11:43:41.043Z,3583.13
2019-04-22T11:44:39.340Z,3667.50
2019-04-22T11:45:39.668Z,3735.00
2019-04-22T11:46:39.402Z,3656.25
2019-04-22T11:47:39.401Z,3521.25
2019-04-22T11:48:40.123Z,3926.25
2019-04-22T11:49:39.784Z,3875.63
2019-04-22T11:50:40.005Z,3583.13
2019-04-22T11:51:40.217Z,3605.63
2019-04-22T11:52:40.515Z,3678.75
2019-04-22T11:53:40.745Z,3718.13
2019-04-22T11:54:39.187Z,3684.38
2019-04-22T11:55:40.418Z,3673.13
2019-04-22T11:56:39.156Z,3735.00
2019-04-22T11:57:39.276Z,3819.38
2019-04-22T11:58:39.145Z,3712.50
2019-04-22T11:59:40.574Z,3515.63
2019-04-22T12:00:39.301Z,3701.25
2019-04-22T12:01:39.100Z,3960.00
2019-04-22T12:02:39.070Z,3881.25
2019-04-22T12:03:40.008Z,3678.75
2019-04-22T12:04:40.159Z,3791.25
2019-04-22T12:05:39.774Z,3847.50
2019-04-22T12:06:40.122Z,3791.25
2019-04-22T12:07:40.955Z,3864.38
2019-04-22T12:08:39.662Z,3841.88
2019-04-22T12:09:39.615Z,3813.75
2019-04-22T12:10:48.589Z,3802.50
2019-04-22T12:11:40.504Z,3841.88
2019-04-22T12:12:39.691Z,3718.13
2019-04-22T12:13:39.964Z,3746.25
2019-04-22T12:14:40.153Z,3825.00
2019-04-22T12:15:38.877Z,3808.13
2019-04-22T12:16:39.498Z,3751.88
2019-04-22T12:17:40.152Z,3740.63
2019-04-22T12:18:39.633Z,3796.88
2019-04-22T12:19:40.128Z,3532.50
2019-04-22T12:20:39.176Z,3425.63
2019-04-22T12:21:39.390Z,3273.75
2019-04-22T12:22:38.974Z,3099.38
2019-04-22T12:23:39.177Z,2975.63
2019-04-22T12:24:40.442Z,2649.38
2019-04-22T12:25:47.582Z,2559.38
2019-04-22T12:26:39.977Z,2705.63
2019-04-22T12:27:39.002Z,2840.63
2019-04-22T12:29:22.469Z,2587.50
2019-04-22T12:30:21.430Z,2154.38
2019-04-22T12:31:21.805Z,1878.75
2019-04-22T12:32:21.396Z,1906.88
2019-04-22T12:33:21.308Z,2604.38
2019-04-22T12:34:21.505Z,3386.25
2019-04-22T12:35:20.991Z,3639.38
2019-04-22T12:36:22.503Z,3645.00
2019-04-22T12:37:27.432Z,3628.13
2019-04-22T12:38:22.150Z,3583.13
2019-04-22T12:39:21.316Z,3526.88
2019-04-22T12:40:34.403Z,3560.63
2019-04-22T12:41:21.644Z,3864.38
2019-04-22T12:42:21.502Z,3858.75
2019-04-22T12:43:23.748Z,3611.25
2019-04-22T12:44:22.175Z,3504.38
2019-04-22T12:45:22.304Z,3813.75
2019-04-22T12:46:20.830Z,3673.13
2019-04-22T12:47:22.201Z,3538.13
2019-04-22T12:48:21.329Z,3436.88
2019-04-22T12:49:22.443Z,3616.88
2019-04-22T12:50:26.256Z,3560.63
2019-04-22T12:51:20.987Z,3487.50
2019-04-22T12:52:28.536Z,3667.50
2019-04-22T12:53:24.131Z,3616.88
2019-04-22T12:54:21.445Z,3555.00
2019-04-22T12:55:21.829Z,3538.13
2019-04-22T12:56:21.753Z,3633.75
2019-04-22T12:57:20.794Z,3498.75
2019-04-22T12:58:20.649Z,3560.63
2019-04-22T12:59:21.454Z,3639.38
2019-04-22T13:00:20.670Z,3650.63
2019-04-22T13:01:21.208Z,3476.25
2019-04-22T13:02:20.898Z,3538.13
2019-04-22T13:03:20.577Z,3526.88
2019-04-22T13:04:23.152Z,3453.75
2019-04-22T13:05:20.543Z,3363.75
2019-04-22T13:06:21.728Z,3453.75
2019-04-22T13:07:21.797Z,2975.63
2019-04-22T13:08:20.502Z,2109.38
2019-04-22T13:09:21.226Z,1130.63
2019-04-22T13:10:21.854Z,2238.75
2019-04-22T13:11:27.955Z,3324.38
2019-04-22T13:12:22.409Z,3358.13
2019-04-22T13:13:20.840Z,3403.13
2019-04-22T13:14:21.190Z,3386.25
2019-04-22T13:15:20.401Z,3223.13
2019-04-22T13:16:20.745Z,3301.88
2019-04-22T13:17:20.889Z,3526.88
2019-04-22T13:18:30.815Z,3352.50
2019-04-22T13:19:22.622Z,3307.50
2019-04-22T13:20:22.013Z,3431.25
2019-04-22T13:21:20.550Z,3448.13
2019-04-22T13:22:21.080Z,3290.63
2019-04-22T13:23:20.266Z,3386.25
2019-04-22T13:24:21.690Z,3436.88
2019-04-22T13:25:23.324Z,3375.00
2019-04-22T13:26:21.152Z,3330.00
2019-04-22T13:27:21.235Z,3346.88
2019-04-22T13:28:21.064Z,3166.88
2019-04-22T13:29:21.284Z,3031.88
2019-04-22T13:30:20.819Z,2784.38
2019-04-22T13:31:20.882Z,2683.13
2019-04-22T13:32:20.789Z,2818.13
2019-04-22T13:33:21.001Z,2728.13
2019-04-22T13:34:29.435Z,2694.38
2019-04-22T13:35:22.036Z,2750.63
2019-04-22T13:36:22.757Z,2767.50
2019-04-22T13:37:20.920Z,2536.88
2019-04-22T13:38:20.030Z,2373.75
2019-04-22T13:39:20.845Z,2283.75
2019-04-22T13:40:21.093Z,2165.63
2019-04-22T13:41:31.157Z,1974.38
2019-04-22T13:42:22.153Z,1940.63
2019-04-22T13:43:20.833Z,1946.25
2019-04-22T13:44:20.853Z,1974.38
2019-04-22T13:45:20.057Z,2143.13
2019-04-22T13:46:20.116Z,2368.13
2019-04-22T13:47:39.108Z,3217.50
2019-04-22T13:48:40.009Z,3825.00
2019-04-22T13:49:49.426Z,3943.13
2019-04-22T13:51:30.284Z,4494.38
2019-04-22T13:52:48.416Z,4578.75
2019-04-22T13:55:39.716Z,3768.75
2019-04-22T13:56:28.432Z,3628.13
2019-04-22T13:57:19.787Z,3915.00
2019-04-22T13:58:14.586Z,3718.13
2019-04-22T13:59:10.249Z,3448.13
2019-04-22T14:00:02.776Z,3622.50
2019-04-22T14:01:02.642Z,3723.75
2019-04-22T14:02:02.054Z,3583.13
2019-04-22T14:03:02.387Z,3667.50
2019-04-22T14:04:02.649Z,3673.13
2019-04-22T14:05:02.006Z,3425.63
2019-04-22T14:06:02.668Z,3375.00
2019-04-22T14:07:02.900Z,3301.88
2019-04-22T14:08:02.934Z,3285.00
2019-04-22T14:09:03.179Z,3453.75
2019-04-22T14:10:02.620Z,3510.00
2019-04-22T14:11:11.823Z,3481.88
2019-04-22T14:12:05.696Z,3577.50
2019-04-22T14:13:03.711Z,3543.75
2019-04-22T14:14:02.866Z,3600.00
2019-04-22T14:15:02.286Z,3504.38
2019-04-22T14:16:01.822Z,3403.13
2019-04-22T14:17:02.980Z,3363.75
2019-04-22T14:18:03.046Z,3189.38
2019-04-22T14:19:02.130Z,3133.13
2019-04-22T14:20:02.606Z,3313.13
2019-04-22T14:21:02.854Z,3279.38
2019-04-22T14:22:02.016Z,3200.63
2019-04-22T14:23:03.125Z,3133.13
2019-04-22T14:24:02.697Z,3116.25
2019-04-22T14:25:02.914Z,3088.13
2019-04-22T14:26:01.650Z,3082.50
2019-04-22T14:27:17.577Z,3060.00
2019-04-22T14:28:04.426Z,3009.38
2019-04-22T14:29:01.940Z,3020.63
2019-04-22T14:30:01.976Z,3043.13
2019-04-22T14:31:02.430Z,3093.75
2019-04-22T14:32:09.269Z,3065.63
2019-04-22T14:33:02.735Z,3020.63
2019-04-22T14:34:05.120Z,3009.38
2019-04-22T14:35:04.990Z,2998.13
2019-04-22T14:36:02.568Z,2880.00
2019-04-22T14:37:44.061Z,2908.13
2019-04-22T14:38:43.961Z,2947.50
2019-04-22T14:39:44.131Z,2868.75
2019-04-22T14:40:45.512Z,2896.88
2019-04-22T14:42:00.822Z,2981.25
2019-04-22T14:44:15.607Z,2941.88
2019-04-22T14:45:02.520Z,2930.63
2019-04-22T14:46:20.368Z,2801.25
2019-04-22T14:47:15.780Z,2745.00
2019-04-22T14:48:09.599Z,2790.00
2019-04-22T14:49:02.872Z,2835.00
2019-04-22T14:50:05.219Z,2767.50
2019-04-22T14:51:00.931Z,2784.38
2019-04-22T14:52:07.420Z,2700.00
2019-04-22T14:53:06.814Z,2351.25
2019-04-22T14:54:01.199Z,2424.38
2019-04-22T14:54:51.947Z,2778.75
2019-04-22T14:55:46.553Z,2756.25
2019-04-22T14:56:44.547Z,2666.25
2019-04-22T15:17:31.319Z,2390.63
2019-04-22T15:18:31.662Z,2469.38
2019-04-22T15:19:31.756Z,2401.88
2019-04-22T15:20:31.884Z,2401.88
2019-04-22T15:21:30.519Z,2430.00
2019-04-22T15:22:30.913Z,2435.63
2019-04-22T15:23:31.012Z,2373.75
2019-04-22T15:24:30.463Z,2295.00
2019-04-22T15:25:30.673Z,2317.50
2019-04-22T15:32:09.793Z,2261.25
2019-04-22T15:33:09.815Z,2238.75
2019-04-22T15:34:10.232Z,2300.63
2019-04-22T15:35:09.532Z,2238.75
2019-04-22T15:36:10.056Z,2148.75
2019-04-22T15:37:09.492Z,2131.88
2019-04-22T15:38:11.139Z,2103.75
2019-04-22T15:39:09.456Z,2182.50
2019-04-22T15:40:10.945Z,2210.63
2019-04-22T15:41:10.464Z,2086.88
2019-04-22T15:42:18.339Z,1996.88
2019-04-22T15:43:10.982Z,2036.25
2019-04-22T15:44:10.110Z,2064.38
2019-04-22T15:45:11.841Z,2081.25
2019-04-22T15:46:09.852Z,2058.75
2019-04-22T15:47:09.299Z,2047.50
2019-04-22T15:48:10.300Z,2047.50
2019-04-22T15:49:09.883Z,2109.38
2019-04-22T15:50:10.119Z,2064.38
2019-04-22T15:51:10.889Z,2019.38
2019-04-22T15:52:10.434Z,2008.13
2019-04-22T15:53:09.768Z,2019.38
2019-04-22T16:17:28.777Z,1732.50
2019-04-22T16:18:28.451Z,1698.75
2019-04-22T16:19:28.148Z,1721.25
2019-04-22T16:20:28.126Z,1693.13
2019-04-22T16:21:37.790Z,1681.88
2019-04-22T16:22:29.273Z,1659.38
2019-04-22T16:23:29.672Z,1636.88
2019-04-22T16:24:28.042Z,1653.75
2019-04-22T16:25:29.036Z,1648.13
2019-04-22T16:26:28.427Z,1603.13
2019-04-22T16:27:27.982Z,1608.75
2019-04-22T16:28:29.298Z,1580.63
2019-04-22T16:29:29.497Z,1580.63
2019-04-22T16:30:27.920Z,1586.25
2019-04-22T16:31:29.218Z,1597.50
2019-04-22T16:32:28.300Z,1614.38
2019-04-22T16:51:07.908Z,376.88
2019-04-22T16:52:08.033Z,365.63
2019-04-22T16:53:08.273Z,360.00
2019-04-22T16:54:08.571Z,360.00
2019-04-22T16:55:08.738Z,354.38
2019-04-22T16:56:08.825Z,348.75
2019-04-22T16:57:08.137Z,348.75
2019-04-22T16:58:07.547Z,348.75
2019-04-22T16:59:08.840Z,343.13
2019-04-22T17:00:08.917Z,343.13
2019-04-22T17:01:08.290Z,337.50
2019-04-22T17:02:08.596Z,337.50
2019-04-22T17:05:15.870Z,326.25
2019-04-22T17:09:50.040Z,315.00
2019-04-22T17:17:08.574Z,292.50
2019-04-22T17:18:09.459Z,286.88
2019-04-22T17:19:09.027Z,286.88
2019-04-22T17:20:09.165Z,281.25
2019-04-22T17:21:09.207Z,281.25
2019-04-22T17:22:07.998Z,275.63
2019-04-22T17:23:09.203Z,275.63
2019-04-22T17:24:07.902Z,270.00
2019-04-22T17:25:08.685Z,264.38
2019-04-22T17:26:08.433Z,264.38
2019-04-22T17:27:08.677Z,258.75
2019-04-22T17:28:07.914Z,258.75
2019-04-22T17:29:08.438Z,253.13
2019-04-22T17:30:08.489Z,253.13
2019-04-22T17:31:08.735Z,247.50
2019-04-22T17:32:13.239Z,241.88
2019-04-22T17:33:08.406Z,241.88
2019-04-22T17:34:07.640Z,236.25
2019-04-22T17:35:08.323Z,236.25
2019-04-22T17:36:09.257Z,230.63
2019-04-22T17:37:15.490Z,225.00
2019-04-22T17:38:16.275Z,225.00
2019-04-22T17:39:24.691Z,219.38
2019-04-22T17:40:29.014Z,213.75
2019-04-22T17:41:21.168Z,213.75
2019-04-22T17:42:25.181Z,208.13
2019-04-22T17:43:36.030Z,208.13
2019-04-22T17:44:31.215Z,202.50
2019-04-22T17:45:33.573Z,196.88
2019-04-22T17:46:24.681Z,196.88
2019-04-22T17:47:27.175Z,191.25
2019-04-22T17:48:30.896Z,185.63
2019-04-22T17:49:31.590Z,180.00
2019-04-22T17:51:16.576Z,174.38
2019-04-22T17:52:10.750Z,174.38
2019-04-22T17:53:18.415Z,168.75
2019-04-22T17:54:26.882Z,163.13
2019-04-22T17:55:04.518Z,157.50
2019-04-22T17:56:14.058Z,157.50
2019-04-22T17:57:12.343Z,151.88
2019-04-22T17:58:17.614Z,146.25
2019-04-22T17:59:51.821Z,140.63
2019-04-22T18:00:52.187Z,140.63
2019-04-22T18:01:51.569Z,135.00
2019-04-22T18:02:44.716Z,135.00
2019-04-22T18:03:40.496Z,129.38
2019-04-22T18:04:40.164Z,123.75
2019-04-22T18:05:40.658Z,118.13
2019-04-22T18:06:55.098Z,118.13
2019-04-22T18:07:55.916Z,112.50
2019-04-22T18:08:50.373Z,106.88
2019-04-22T18:10:21.031Z,101.25
2019-04-22T18:10:54.229Z,101.25
2019-04-22T18:11:56.450Z,95.63
2019-04-22T18:13:01.754Z,90.00
2019-04-22T18:13:51.625Z,90.00
2019-04-22T18:15:01.032Z,84.38
2019-04-22T18:16:51.934Z,73.13
2019-04-22T18:19:16.650Z,67.50
2019-04-22T18:20:16.628Z,61.88
2019-04-22T18:21:14.700Z,56.25
2019-04-22T18:22:07.498Z,56.25
2019-04-22T18:23:05.684Z,50.63
2019-04-22T18:24:08.018Z,50.63
2019-04-22T18:25:07.689Z,45.00
2019-04-22T18:26:14.892Z,45.00
2019-04-22T18:27:31.642Z,39.38
2019-04-22T18:28:17.638Z,33.75
2019-04-22T18:29:20.974Z,33.75
2019-04-22T18:30:16.314Z,33.75
2019-04-22T18:31:11.972Z,28.13
2019-04-22T18:32:08.760Z,28.13
2019-04-22T18:33:20.819Z,22.50
2019-04-22T18:34:09.999Z,22.50
2019-04-22T18:35:18.462Z,16.88
2019-04-22T18:36:16.891Z,16.88
2019-04-22T18:37:13.856Z,16.88
2019-04-22T18:38:29.671Z,11.25
2019-04-22T18:39:22.578Z,11.25